sensor_id;sensor_type;location;lat;lon;timestamp;temperature;humidity
32769;DHT22;23049;54.304;8.826;2023-04-24T00:00:15;12.50;99.90
32769;DHT22;23049;54.304;8.826;2023-04-24T00:02:41;12.30;99.90
32769;DHT22;23049;54.304;8.826;2023-04-24T00:05:10;12.30;99.90
32769;DHT22;23049;54.304;8.826;2023-04-24T00:07:35;12.10;99.90
32769;DHT22;23049;54.304;8.826;2023-04-24T00:10:01;12.10;99.90
32769;DHT22;23049;54.304;8.826;2023-04-24T00:12:26;12.00;99.90
32769;DHT22;23049;54.304;8.826;2023-04-24T00:14:52;11.90;99.90
32769;DHT22;23049;54.304;8.826;2023-04-24T00:17:18;12.00;99.90
32769;DHT22;23049;54.304;8.826;2023-04-24T00:19:46;12.00;99.90
32769;DHT22;23049;54.304;8.826;2023-04-24T00:22:12;12.00;99.90
32769;DHT22;23049;54.304;8.826;2023-04-24T00:24:38;12.10;99.90
32769;DHT22;23049;54.304;8.826;2023-04-24T00:27:04;12.20;99.90
32769;DHT22;23049;54.304;8.826;2023-04-24T00:29:30;12.10;99.90
32769;DHT22;23049;54.304;8.826;2023-04-24T00:31:55;12.10;99.90
32769;DHT22;23049;54.304;8.826;2023-04-24T00:34:21;12.00;99.90
32769;DHT22;23049;54.304;8.826;2023-04-24T00:36:46;12.00;99.90
32769;DHT22;23049;54.304;8.826;2023-04-24T00:39:14;12.00;99.90
32769;DHT22;23049;54.304;8.826;2023-04-24T00:41:39;12.10;99.90
32769;DHT22;23049;54.304;8.826;2023-04-24T00:44:05;12.10;99.90
32769;DHT22;23049;54.304;8.826;2023-04-24T00:46:31;12.10;99.90
32769;DHT22;23049;54.304;8.826;2023-04-24T00:48:56;12.20;99.90
32769;DHT22;23049;54.304;8.826;2023-04-24T00:51:24;12.10;99.90
32769;DHT22;23049;54.304;8.826;2023-04-24T00:53:50;12.20;99.90
32769;DHT22;23049;54.304;8.826;2023-04-24T00:56:16;12.20;99.90
32769;DHT22;23049;54.304;8.826;2023-04-24T00:58:42;12.30;99.90
32769;DHT22;23049;54.304;8.826;2023-04-24T01:01:07;12.40;99.90
32769;DHT22;23049;54.304;8.826;2023-04-24T01:03:33;12.20;99.90
32769;DHT22;23049;54.304;8.826;2023-04-24T01:06:02;12.30;99.90
32769;DHT22;23049;54.304;8.826;2023-04-24T01:08:28;12.30;99.90
32769;DHT22;23049;54.304;8.826;2023-04-24T01:10:53;12.20;99.90
32769;DHT22;23049;54.304;8.826;2023-04-24T01:13:19;12.20;99.90
32769;DHT22;23049;54.304;8.826;2023-04-24T01:15:46;12.10;99.90
32769;DHT22;23049;54.304;8.826;2023-04-24T01:18:12;12.20;99.90
32769;DHT22;23049;54.304;8.826;2023-04-24T01:20:39;12.10;99.90
32769;DHT22;23049;54.304;8.826;2023-04-24T01:23:05;12.10;99.90
32769;DHT22;23049;54.304;8.826;2023-04-24T01:25:31;12.10;99.90
32769;DHT22;23049;54.304;8.826;2023-04-24T01:27:57;12.10;99.90
32769;DHT22;23049;54.304;8.826;2023-04-24T01:30:22;12.20;99.90
32769;DHT22;23049;54.304;8.826;2023-04-24T01:32:48;12.20;99.90
32769;DHT22;23049;54.304;8.826;2023-04-24T01:35:13;12.20;99.90
32769;DHT22;23049;54.304;8.826;2023-04-24T01:37:39;12.20;99.90
32769;DHT22;23049;54.304;8.826;2023-04-24T01:40:05;12.30;99.90
32769;DHT22;23049;54.304;8.826;2023-04-24T01:42:32;12.30;99.90
32769;DHT22;23049;54.304;8.826;2023-04-24T01:44:57;12.30;99.90
32769;DHT22;23049;54.304;8.826;2023-04-24T01:47:23;12.30;99.90
32769;DHT22;23049;54.304;8.826;2023-04-24T01:49:49;12.40;99.90
32769;DHT22;23049;54.304;8.826;2023-04-24T01:52:15;12.40;99.90
32769;DHT22;23049;54.304;8.826;2023-04-24T01:54:41;12.40;99.90
32769;DHT22;23049;54.304;8.826;2023-04-24T01:57:07;12.50;99.90
32769;DHT22;23049;54.304;8.826;2023-04-24T01:59:33;12.40;99.90
32769;DHT22;23049;54.304;8.826;2023-04-24T02:01:58;12.50;99.90
32769;DHT22;23049;54.304;8.826;2023-04-24T02:04:24;12.60;99.90
32769;DHT22;23049;54.304;8.826;2023-04-24T02:06:49;12.60;99.90
32769;DHT22;23049;54.304;8.826;2023-04-24T02:09:15;12.60;99.90
32769;DHT22;23049;54.304;8.826;2023-04-24T02:11:40;12.60;99.90
32769;DHT22;23049;54.304;8.826;2023-04-24T02:14:06;12.50;99.90
32769;DHT22;23049;54.304;8.826;2023-04-24T02:16:31;12.60;99.90
32769;DHT22;23049;54.304;8.826;2023-04-24T02:18:58;12.50;99.90
32769;DHT22;23049;54.304;8.826;2023-04-24T02:21:23;12.50;99.90
32769;DHT22;23049;54.304;8.826;2023-04-24T02:23:49;12.50;99.90
32769;DHT22;23049;54.304;8.826;2023-04-24T02:26:15;12.50;99.90
32769;DHT22;23049;54.304;8.826;2023-04-24T02:28:40;12.50;99.90
32769;DHT22;23049;54.304;8.826;2023-04-24T02:31:06;12.60;99.90
32769;DHT22;23049;54.304;8.826;2023-04-24T02:33:31;12.50;99.90
32769;DHT22;23049;54.304;8.826;2023-04-24T02:35:57;12.60;99.90
32769;DHT22;23049;54.304;8.826;2023-04-24T02:38:22;12.50;99.90
32769;DHT22;23049;54.304;8.826;2023-04-24T02:40:48;12.50;99.90
32769;DHT22;23049;54.304;8.826;2023-04-24T02:43:13;12.40;99.90
32769;DHT22;23049;54.304;8.826;2023-04-24T02:45:39;12.40;99.90
32769;DHT22;23049;54.304;8.826;2023-04-24T02:48:04;12.40;99.90
32769;DHT22;23049;54.304;8.826;2023-04-24T02:50:30;12.40;99.90
32769;DHT22;23049;54.304;8.826;2023-04-24T02:52:55;12.50;99.90
32769;DHT22;23049;54.304;8.826;2023-04-24T02:55:21;12.40;99.90
32769;DHT22;23049;54.304;8.826;2023-04-24T02:57:46;12.40;99.90
32769;DHT22;23049;54.304;8.826;2023-04-24T03:00:12;12.40;99.90
32769;DHT22;23049;54.304;8.826;2023-04-24T03:02:38;12.40;99.90
32769;DHT22;23049;54.304;8.826;2023-04-24T03:05:04;12.40;99.90
32769;DHT22;23049;54.304;8.826;2023-04-24T03:07:29;12.30;99.90
32769;DHT22;23049;54.304;8.826;2023-04-24T03:09:56;12.40;99.90
32769;DHT22;23049;54.304;8.826;2023-04-24T03:12:23;12.20;99.90
32769;DHT22;23049;54.304;8.826;2023-04-24T03:14:49;12.10;99.90
32769;DHT22;23049;54.304;8.826;2023-04-24T03:17:14;12.00;99.90
32769;DHT22;23049;54.304;8.826;2023-04-24T03:19:40;11.90;99.90
32769;DHT22;23049;54.304;8.826;2023-04-24T03:22:05;11.80;99.90
32769;DHT22;23049;54.304;8.826;2023-04-24T03:24:31;11.90;99.90
32769;DHT22;23049;54.304;8.826;2023-04-24T03:26:57;11.80;99.90
32769;DHT22;23049;54.304;8.826;2023-04-24T03:29:22;11.80;99.90
32769;DHT22;23049;54.304;8.826;2023-04-24T03:31:48;11.80;99.90
32769;DHT22;23049;54.304;8.826;2023-04-24T03:34:13;11.70;99.90
32769;DHT22;23049;54.304;8.826;2023-04-24T03:36:39;11.80;99.90
32769;DHT22;23049;54.304;8.826;2023-04-24T03:39:04;11.70;99.90
32769;DHT22;23049;54.304;8.826;2023-04-24T03:41:30;11.80;99.90
32769;DHT22;23049;54.304;8.826;2023-04-24T03:43:56;11.80;99.90
32769;DHT22;23049;54.304;8.826;2023-04-24T03:46:21;11.80;99.90
32769;DHT22;23049;54.304;8.826;2023-04-24T03:48:47;11.80;99.90
32769;DHT22;23049;54.304;8.826;2023-04-24T03:51:12;11.60;99.90
32769;DHT22;23049;54.304;8.826;2023-04-24T03:53:38;11.70;99.90
32769;DHT22;23049;54.304;8.826;2023-04-24T03:56:03;11.60;99.90
32769;DHT22;23049;54.304;8.826;2023-04-24T03:58:29;11.70;99.90
32769;DHT22;23049;54.304;8.826;2023-04-24T04:00:54;11.60;99.90
32769;DHT22;23049;54.304;8.826;2023-04-24T04:03:22;11.60;99.90
32769;DHT22;23049;54.304;8.826;2023-04-24T04:05:47;11.60;99.90
32769;DHT22;23049;54.304;8.826;2023-04-24T04:08:13;11.50;99.90
32769;DHT22;23049;54.304;8.826;2023-04-24T04:10:38;11.50;99.90
32769;DHT22;23049;54.304;8.826;2023-04-24T04:13:04;11.50;99.90
32769;DHT22;23049;54.304;8.826;2023-04-24T04:15:31;11.50;99.90
32769;DHT22;23049;54.304;8.826;2023-04-24T04:17:57;11.60;99.90
32769;DHT22;23049;54.304;8.826;2023-04-24T04:20:22;11.50;99.90
32769;DHT22;23049;54.304;8.826;2023-04-24T04:22:48;11.50;99.90
32769;DHT22;23049;54.304;8.826;2023-04-24T04:25:13;11.40;99.90
32769;DHT22;23049;54.304;8.826;2023-04-24T04:27:39;11.40;99.90
32769;DHT22;23049;54.304;8.826;2023-04-24T04:30:07;11.40;99.90
32769;DHT22;23049;54.304;8.826;2023-04-24T04:32:33;11.40;99.90
32769;DHT22;23049;54.304;8.826;2023-04-24T04:34:59;11.40;99.90
32769;DHT22;23049;54.304;8.826;2023-04-24T04:37:31;11.40;99.90
32769;DHT22;23049;54.304;8.826;2023-04-24T04:39:58;11.30;99.90
32769;DHT22;23049;54.304;8.826;2023-04-24T04:42:24;11.20;99.90
32769;DHT22;23049;54.304;8.826;2023-04-24T04:44:50;11.20;99.90
32769;DHT22;23049;54.304;8.826;2023-04-24T04:47:16;11.20;99.90
32769;DHT22;23049;54.304;8.826;2023-04-24T04:49:43;11.20;99.90
32769;DHT22;23049;54.304;8.826;2023-04-24T04:52:09;11.20;99.90
32769;DHT22;23049;54.304;8.826;2023-04-24T04:54:34;11.10;99.90
32769;DHT22;23049;54.304;8.826;2023-04-24T04:57:00;11.00;99.90
32769;DHT22;23049;54.304;8.826;2023-04-24T04:59:26;11.00;99.90
32769;DHT22;23049;54.304;8.826;2023-04-24T05:01:51;11.10;99.90
32769;DHT22;23049;54.304;8.826;2023-04-24T05:04:17;11.10;99.90
32769;DHT22;23049;54.304;8.826;2023-04-24T05:06:43;11.10;99.90
32769;DHT22;23049;54.304;8.826;2023-04-24T05:09:08;11.00;99.90
32769;DHT22;23049;54.304;8.826;2023-04-24T05:11:34;11.00;99.90
32769;DHT22;23049;54.304;8.826;2023-04-24T05:14:00;11.00;99.90
32769;DHT22;23049;54.304;8.826;2023-04-24T05:16:26;11.00;99.90
32769;DHT22;23049;54.304;8.826;2023-04-24T05:18:52;11.00;99.90
32769;DHT22;23049;54.304;8.826;2023-04-24T05:21:18;11.00;99.90
32769;DHT22;23049;54.304;8.826;2023-04-24T05:23:43;11.00;99.90
32769;DHT22;23049;54.304;8.826;2023-04-24T05:26:09;11.10;99.90
32769;DHT22;23049;54.304;8.826;2023-04-24T05:28:34;11.10;99.90
32769;DHT22;23049;54.304;8.826;2023-04-24T05:31:02;11.00;99.90
32769;DHT22;23049;54.304;8.826;2023-04-24T05:33:27;11.00;99.90
32769;DHT22;23049;54.304;8.826;2023-04-24T05:35:53;11.00;99.90
32769;DHT22;23049;54.304;8.826;2023-04-24T05:38:19;11.00;99.90
32769;DHT22;23049;54.304;8.826;2023-04-24T05:40:45;11.10;99.90
32769;DHT22;23049;54.304;8.826;2023-04-24T05:43:11;11.10;99.90
32769;DHT22;23049;54.304;8.826;2023-04-24T05:45:36;11.20;99.90
32769;DHT22;23049;54.304;8.826;2023-04-24T05:48:03;11.20;99.90
32769;DHT22;23049;54.304;8.826;2023-04-24T05:50:28;11.20;99.90
32769;DHT22;23049;54.304;8.826;2023-04-24T05:52:54;11.20;99.90
32769;DHT22;23049;54.304;8.826;2023-04-24T05:55:20;11.30;99.90
32769;DHT22;23049;54.304;8.826;2023-04-24T05:57:45;11.30;99.90
32769;DHT22;23049;54.304;8.826;2023-04-24T06:00:11;11.20;99.90
32769;DHT22;23049;54.304;8.826;2023-04-24T06:02:37;11.20;99.90
32769;DHT22;23049;54.304;8.826;2023-04-24T06:05:03;11.20;99.90
32769;DHT22;23049;54.304;8.826;2023-04-24T06:07:30;11.20;99.90
32769;DHT22;23049;54.304;8.826;2023-04-24T06:09:55;11.20;99.90
32769;DHT22;23049;54.304;8.826;2023-04-24T06:12:22;11.20;99.90
32769;DHT22;23049;54.304;8.826;2023-04-24T06:14:47;11.30;99.90
32769;DHT22;23049;54.304;8.826;2023-04-24T06:17:13;11.30;99.90
32769;DHT22;23049;54.304;8.826;2023-04-24T06:19:38;11.30;99.90
32769;DHT22;23049;54.304;8.826;2023-04-24T06:22:04;11.30;99.90
32769;DHT22;23049;54.304;8.826;2023-04-24T06:24:29;11.20;99.90
32769;DHT22;23049;54.304;8.826;2023-04-24T06:26:55;11.00;99.90
32769;DHT22;23049;54.304;8.826;2023-04-24T06:29:22;11.10;99.90
32769;DHT22;23049;54.304;8.826;2023-04-24T06:31:47;11.10;99.90
32769;DHT22;23049;54.304;8.826;2023-04-24T06:34:13;11.20;99.90
32769;DHT22;23049;54.304;8.826;2023-04-24T06:36:39;11.10;99.90
32769;DHT22;23049;54.304;8.826;2023-04-24T06:39:04;11.10;99.90
32769;DHT22;23049;54.304;8.826;2023-04-24T06:41:30;11.10;99.90
32769;DHT22;23049;54.304;8.826;2023-04-24T06:43:55;11.10;99.90
32769;DHT22;23049;54.304;8.826;2023-04-24T06:46:21;11.10;99.90
32769;DHT22;23049;54.304;8.826;2023-04-24T06:48:54;11.10;99.90
32769;DHT22;23049;54.304;8.826;2023-04-24T06:51:24;11.20;99.90
32769;DHT22;23049;54.304;8.826;2023-04-24T06:53:50;11.10;99.90
32769;DHT22;23049;54.304;8.826;2023-04-24T06:56:16;11.10;99.90
32769;DHT22;23049;54.304;8.826;2023-04-24T06:58:41;11.30;99.90
32769;DHT22;23049;54.304;8.826;2023-04-24T07:01:07;11.40;99.90
32769;DHT22;23049;54.304;8.826;2023-04-24T07:03:32;11.50;99.90
32769;DHT22;23049;54.304;8.826;2023-04-24T07:05:58;11.50;99.90
32769;DHT22;23049;54.304;8.826;2023-04-24T07:08:23;11.50;99.90
32769;DHT22;23049;54.304;8.826;2023-04-24T07:10:50;11.50;99.90
32769;DHT22;23049;54.304;8.826;2023-04-24T07:13:16;11.40;99.90
32769;DHT22;23049;54.304;8.826;2023-04-24T07:15:42;11.40;99.90
32769;DHT22;23049;54.304;8.826;2023-04-24T07:18:08;11.50;99.90
32769;DHT22;23049;54.304;8.826;2023-04-24T07:20:33;11.40;99.90
32769;DHT22;23049;54.304;8.826;2023-04-24T07:22:59;11.30;99.90
32769;DHT22;23049;54.304;8.826;2023-04-24T07:25:25;11.30;99.90
32769;DHT22;23049;54.304;8.826;2023-04-24T07:27:50;11.30;99.90
32769;DHT22;23049;54.304;8.826;2023-04-24T07:30:16;11.30;99.90
32769;DHT22;23049;54.304;8.826;2023-04-24T07:32:41;11.30;99.90
32769;DHT22;23049;54.304;8.826;2023-04-24T07:35:07;11.30;99.90
32769;DHT22;23049;54.304;8.826;2023-04-24T07:37:34;11.30;99.90
32769;DHT22;23049;54.304;8.826;2023-04-24T07:40:00;11.30;99.90
32769;DHT22;23049;54.304;8.826;2023-04-24T07:42:25;11.20;99.90
32769;DHT22;23049;54.304;8.826;2023-04-24T07:44:51;11.30;99.90
32769;DHT22;23049;54.304;8.826;2023-04-24T07:47:16;11.30;99.90
32769;DHT22;23049;54.304;8.826;2023-04-24T07:49:42;11.40;99.90
32769;DHT22;23049;54.304;8.826;2023-04-24T07:52:08;11.40;99.90
32769;DHT22;23049;54.304;8.826;2023-04-24T07:54:33;11.30;99.90
32769;DHT22;23049;54.304;8.826;2023-04-24T07:56:59;11.40;99.90
32769;DHT22;23049;54.304;8.826;2023-04-24T07:59:26;11.50;99.90
32769;DHT22;23049;54.304;8.826;2023-04-24T08:01:51;11.60;99.90
32769;DHT22;23049;54.304;8.826;2023-04-24T08:04:17;11.60;99.90
32769;DHT22;23049;54.304;8.826;2023-04-24T08:06:43;11.60;99.90
32769;DHT22;23049;54.304;8.826;2023-04-24T08:09:09;11.60;99.90
32769;DHT22;23049;54.304;8.826;2023-04-24T08:11:34;11.70;99.90
32769;DHT22;23049;54.304;8.826;2023-04-24T08:13:59;11.70;99.90
32769;DHT22;23049;54.304;8.826;2023-04-24T08:16:25;11.70;99.90
32769;DHT22;23049;54.304;8.826;2023-04-24T08:18:51;11.70;99.90
32769;DHT22;23049;54.304;8.826;2023-04-24T08:21:18;11.70;99.90
32769;DHT22;23049;54.304;8.826;2023-04-24T08:23:44;11.90;99.90
32769;DHT22;23049;54.304;8.826;2023-04-24T08:26:10;11.80;99.90
32769;DHT22;23049;54.304;8.826;2023-04-24T08:28:36;11.80;99.90
32769;DHT22;23049;54.304;8.826;2023-04-24T08:31:02;11.70;99.90
32769;DHT22;23049;54.304;8.826;2023-04-24T08:33:27;11.70;99.90
32769;DHT22;23049;54.304;8.826;2023-04-24T08:36:00;11.60;99.90
32769;DHT22;23049;54.304;8.826;2023-04-24T08:38:26;11.60;99.90
32769;DHT22;23049;54.304;8.826;2023-04-24T08:40:51;11.60;99.90
32769;DHT22;23049;54.304;8.826;2023-04-24T08:43:17;11.60;99.90
32769;DHT22;23049;54.304;8.826;2023-04-24T08:45:43;11.50;99.90
32769;DHT22;23049;54.304;8.826;2023-04-24T08:48:09;11.50;99.90
32769;DHT22;23049;54.304;8.826;2023-04-24T08:50:35;11.50;99.90
32769;DHT22;23049;54.304;8.826;2023-04-24T08:53:00;11.50;99.90
32769;DHT22;23049;54.304;8.826;2023-04-24T08:55:26;11.50;99.90
32769;DHT22;23049;54.304;8.826;2023-04-24T08:57:52;11.50;99.90
32769;DHT22;23049;54.304;8.826;2023-04-24T09:00:18;11.50;99.90
32769;DHT22;23049;54.304;8.826;2023-04-24T09:02:45;11.70;99.90
32769;DHT22;23049;54.304;8.826;2023-04-24T09:05:12;11.60;99.90
32769;DHT22;23049;54.304;8.826;2023-04-24T09:07:39;11.70;99.90
32769;DHT22;23049;54.304;8.826;2023-04-24T09:10:04;11.70;99.90
32769;DHT22;23049;54.304;8.826;2023-04-24T09:12:32;11.90;99.90
32769;DHT22;23049;54.304;8.826;2023-04-24T09:14:58;11.90;99.90
32769;DHT22;23049;54.304;8.826;2023-04-24T09:17:24;11.90;99.90
32769;DHT22;23049;54.304;8.826;2023-04-24T09:19:52;12.10;99.90
32769;DHT22;23049;54.304;8.826;2023-04-24T09:22:17;12.10;99.90
32769;DHT22;23049;54.304;8.826;2023-04-24T09:24:43;12.10;99.90
32769;DHT22;23049;54.304;8.826;2023-04-24T09:27:10;12.30;99.90
32769;DHT22;23049;54.304;8.826;2023-04-24T09:29:37;12.40;99.90
32769;DHT22;23049;54.304;8.826;2023-04-24T09:32:23;12.40;99.90
32769;DHT22;23049;54.304;8.826;2023-04-24T09:35:04;12.40;99.90
32769;DHT22;23049;54.304;8.826;2023-04-24T09:37:30;12.40;99.90
32769;DHT22;23049;54.304;8.826;2023-04-24T09:40:11;12.30;99.90
32769;DHT22;23049;54.304;8.826;2023-04-24T09:42:37;12.20;99.90
32769;DHT22;23049;54.304;8.826;2023-04-24T09:45:03;12.00;99.90
32769;DHT22;23049;54.304;8.826;2023-04-24T09:47:35;12.00;99.90
32769;DHT22;23049;54.304;8.826;2023-04-24T09:50:08;12.00;99.90
32769;DHT22;23049;54.304;8.826;2023-04-24T09:52:34;12.00;99.90
32769;DHT22;23049;54.304;8.826;2023-04-24T09:54:59;12.10;99.90
32769;DHT22;23049;54.304;8.826;2023-04-24T09:57:25;12.10;99.90
32769;DHT22;23049;54.304;8.826;2023-04-24T09:59:50;12.00;99.90
32769;DHT22;23049;54.304;8.826;2023-04-24T10:02:20;12.00;99.90
32769;DHT22;23049;54.304;8.826;2023-04-24T10:04:55;12.00;99.90
32769;DHT22;23049;54.304;8.826;2023-04-24T10:07:21;12.00;99.90
32769;DHT22;23049;54.304;8.826;2023-04-24T10:09:47;11.90;99.90
32769;DHT22;23049;54.304;8.826;2023-04-24T10:12:13;11.90;99.90
32769;DHT22;23049;54.304;8.826;2023-04-24T10:14:40;11.90;99.90
32769;DHT22;23049;54.304;8.826;2023-04-24T10:17:05;12.10;99.90
32769;DHT22;23049;54.304;8.826;2023-04-24T10:19:31;12.10;99.90
32769;DHT22;23049;54.304;8.826;2023-04-24T10:21:57;12.10;99.90
32769;DHT22;23049;54.304;8.826;2023-04-24T10:24:23;12.10;99.90
32769;DHT22;23049;54.304;8.826;2023-04-24T10:26:49;12.30;99.90
32769;DHT22;23049;54.304;8.826;2023-04-24T10:29:16;12.40;99.90
32769;DHT22;23049;54.304;8.826;2023-04-24T10:31:42;12.60;99.90
32769;DHT22;23049;54.304;8.826;2023-04-24T10:34:10;12.50;99.90
32769;DHT22;23049;54.304;8.826;2023-04-24T10:36:37;12.40;99.90
32769;DHT22;23049;54.304;8.826;2023-04-24T10:39:06;12.30;99.90
32769;DHT22;23049;54.304;8.826;2023-04-24T10:41:32;12.40;99.90
32769;DHT22;23049;54.304;8.826;2023-04-24T10:44:07;12.50;99.90
32769;DHT22;23049;54.304;8.826;2023-04-24T10:46:33;12.70;99.90
32769;DHT22;23049;54.304;8.826;2023-04-24T10:48:59;12.80;99.90
32769;DHT22;23049;54.304;8.826;2023-04-24T10:51:43;12.80;99.90
32769;DHT22;23049;54.304;8.826;2023-04-24T10:54:23;12.90;99.90
32769;DHT22;23049;54.304;8.826;2023-04-24T10:56:49;12.80;99.90
32769;DHT22;23049;54.304;8.826;2023-04-24T10:59:23;12.50;99.90
32769;DHT22;23049;54.304;8.826;2023-04-24T11:01:52;12.30;99.90
32769;DHT22;23049;54.304;8.826;2023-04-24T11:04:21;12.20;99.90
32769;DHT22;23049;54.304;8.826;2023-04-24T11:06:53;12.10;99.90
32769;DHT22;23049;54.304;8.826;2023-04-24T11:09:19;12.20;99.90
32769;DHT22;23049;54.304;8.826;2023-04-24T11:11:46;12.10;99.90
32769;DHT22;23049;54.304;8.826;2023-04-24T11:14:15;12.00;99.90
32769;DHT22;23049;54.304;8.826;2023-04-24T11:21:39;12.00;99.90
32769;DHT22;23049;54.304;8.826;2023-04-24T11:26:51;11.90;99.90
32769;DHT22;23049;54.304;8.826;2023-04-24T11:29:16;11.80;99.90
32769;DHT22;23049;54.304;8.826;2023-04-24T11:31:44;11.80;99.90
32769;DHT22;23049;54.304;8.826;2023-04-24T11:34:18;11.90;99.90
32769;DHT22;23049;54.304;8.826;2023-04-24T11:36:47;12.10;99.90
32769;DHT22;23049;54.304;8.826;2023-04-24T11:39:13;12.20;99.90
32769;DHT22;23049;54.304;8.826;2023-04-24T11:41:39;12.20;99.90
32769;DHT22;23049;54.304;8.826;2023-04-24T11:44:06;12.20;99.90
32769;DHT22;23049;54.304;8.826;2023-04-24T11:46:31;12.30;99.90
32769;DHT22;23049;54.304;8.826;2023-04-24T11:48:57;12.20;99.90
32769;DHT22;23049;54.304;8.826;2023-04-24T11:51:26;12.30;99.90
32769;DHT22;23049;54.304;8.826;2023-04-24T11:53:53;12.20;99.90
32769;DHT22;23049;54.304;8.826;2023-04-24T11:56:19;12.20;99.90
32769;DHT22;23049;54.304;8.826;2023-04-24T11:58:46;12.20;99.90
32769;DHT22;23049;54.304;8.826;2023-04-24T12:01:12;12.10;99.90
32769;DHT22;23049;54.304;8.826;2023-04-24T12:03:37;12.10;99.90
32769;DHT22;23049;54.304;8.826;2023-04-24T12:06:06;12.10;99.90
32769;DHT22;23049;54.304;8.826;2023-04-24T12:08:33;12.10;99.90
32769;DHT22;23049;54.304;8.826;2023-04-24T12:11:00;12.30;99.90
32769;DHT22;23049;54.304;8.826;2023-04-24T12:13:26;12.60;99.90
32769;DHT22;23049;54.304;8.826;2023-04-24T12:15:51;12.70;99.90
32769;DHT22;23049;54.304;8.826;2023-04-24T12:18:17;12.60;99.90
32769;DHT22;23049;54.304;8.826;2023-04-24T12:20:43;12.50;99.90
32769;DHT22;23049;54.304;8.826;2023-04-24T12:23:08;12.40;99.90
32769;DHT22;23049;54.304;8.826;2023-04-24T12:25:34;12.20;99.90
32769;DHT22;23049;54.304;8.826;2023-04-24T12:30:28;12.20;99.90
32769;DHT22;23049;54.304;8.826;2023-04-24T12:32:55;12.20;99.90
32769;DHT22;23049;54.304;8.826;2023-04-24T12:35:22;12.20;99.90
32769;DHT22;23049;54.304;8.826;2023-04-24T12:37:48;12.20;99.90
32769;DHT22;23049;54.304;8.826;2023-04-24T12:40:15;12.20;99.90
32769;DHT22;23049;54.304;8.826;2023-04-24T12:42:45;12.00;99.90
32769;DHT22;23049;54.304;8.826;2023-04-24T12:45:11;12.00;99.90
32769;DHT22;23049;54.304;8.826;2023-04-24T12:47:39;12.10;99.90
32769;DHT22;23049;54.304;8.826;2023-04-24T12:50:09;12.10;99.90
32769;DHT22;23049;54.304;8.826;2023-04-24T12:52:35;12.10;99.90
32769;DHT22;23049;54.304;8.826;2023-04-24T12:55:01;12.10;99.90
32769;DHT22;23049;54.304;8.826;2023-04-24T12:57:28;12.20;99.90
32769;DHT22;23049;54.304;8.826;2023-04-24T12:59:54;12.20;99.90
32769;DHT22;23049;54.304;8.826;2023-04-24T13:02:20;12.20;99.90
32769;DHT22;23049;54.304;8.826;2023-04-24T13:04:47;12.20;99.90
32769;DHT22;23049;54.304;8.826;2023-04-24T13:07:13;12.10;99.90
32769;DHT22;23049;54.304;8.826;2023-04-24T13:09:40;12.00;99.90
32769;DHT22;23049;54.304;8.826;2023-04-24T13:12:06;12.00;99.90
32769;DHT22;23049;54.304;8.826;2023-04-24T13:14:32;12.10;99.90
32769;DHT22;23049;54.304;8.826;2023-04-24T13:16:57;12.10;99.90
32769;DHT22;23049;54.304;8.826;2023-04-24T13:19:26;12.00;99.90
32769;DHT22;23049;54.304;8.826;2023-04-24T13:21:53;12.00;99.90
32769;DHT22;23049;54.304;8.826;2023-04-24T13:24:19;12.00;99.90
32769;DHT22;23049;54.304;8.826;2023-04-24T13:26:45;11.90;99.90
32769;DHT22;23049;54.304;8.826;2023-04-24T13:29:10;11.90;99.90
32769;DHT22;23049;54.304;8.826;2023-04-24T13:31:36;11.80;99.90
32769;DHT22;23049;54.304;8.826;2023-04-24T13:34:02;11.60;99.90
32769;DHT22;23049;54.304;8.826;2023-04-24T13:36:27;11.60;99.90
32769;DHT22;23049;54.304;8.826;2023-04-24T13:38:53;11.50;99.90
32769;DHT22;23049;54.304;8.826;2023-04-24T13:41:18;11.40;99.90
32769;DHT22;23049;54.304;8.826;2023-04-24T13:43:44;11.40;99.90
32769;DHT22;23049;54.304;8.826;2023-04-24T13:46:09;11.30;99.90
32769;DHT22;23049;54.304;8.826;2023-04-24T13:48:35;11.30;99.90
32769;DHT22;23049;54.304;8.826;2023-04-24T13:51:00;11.30;99.90
32769;DHT22;23049;54.304;8.826;2023-04-24T13:53:26;11.30;99.90
32769;DHT22;23049;54.304;8.826;2023-04-24T13:55:51;11.20;99.90
32769;DHT22;23049;54.304;8.826;2023-04-24T13:58:17;11.20;99.90
32769;DHT22;23049;54.304;8.826;2023-04-24T14:00:42;11.10;99.90
32769;DHT22;23049;54.304;8.826;2023-04-24T14:03:08;11.10;99.90
32769;DHT22;23049;54.304;8.826;2023-04-24T14:05:33;11.00;99.90
32769;DHT22;23049;54.304;8.826;2023-04-24T14:07:59;11.00;99.90
32769;DHT22;23049;54.304;8.826;2023-04-24T14:10:25;11.00;99.90
32769;DHT22;23049;54.304;8.826;2023-04-24T14:12:52;10.90;99.90
32769;DHT22;23049;54.304;8.826;2023-04-24T14:15:18;10.90;99.90
32769;DHT22;23049;54.304;8.826;2023-04-24T14:17:44;10.80;99.90
32769;DHT22;23049;54.304;8.826;2023-04-24T14:20:09;10.80;99.90
32769;DHT22;23049;54.304;8.826;2023-04-24T14:22:35;10.70;99.90
32769;DHT22;23049;54.304;8.826;2023-04-24T14:25:00;10.70;99.90
32769;DHT22;23049;54.304;8.826;2023-04-24T14:27:26;10.60;99.90
32769;DHT22;23049;54.304;8.826;2023-04-24T14:29:52;10.60;99.90
32769;DHT22;23049;54.304;8.826;2023-04-24T14:32:17;10.50;99.90
32769;DHT22;23049;54.304;8.826;2023-04-24T14:34:43;10.50;99.90
32769;DHT22;23049;54.304;8.826;2023-04-24T14:37:09;10.40;99.90
32769;DHT22;23049;54.304;8.826;2023-04-24T14:39:34;10.50;99.90
32769;DHT22;23049;54.304;8.826;2023-04-24T14:42:00;10.50;99.90
32769;DHT22;23049;54.304;8.826;2023-04-24T14:44:26;10.50;99.90
32769;DHT22;23049;54.304;8.826;2023-04-24T14:46:51;10.40;99.90
32769;DHT22;23049;54.304;8.826;2023-04-24T14:51:30;10.30;99.90
32769;DHT22;23049;54.304;8.826;2023-04-24T14:53:56;10.30;99.90
32769;DHT22;23049;54.304;8.826;2023-04-24T14:56:21;10.20;99.90
32769;DHT22;23049;54.304;8.826;2023-04-24T14:58:48;10.20;99.90
32769;DHT22;23049;54.304;8.826;2023-04-24T15:01:13;10.10;99.90
32769;DHT22;23049;54.304;8.826;2023-04-24T15:03:39;10.10;99.90
32769;DHT22;23049;54.304;8.826;2023-04-24T15:06:04;10.10;99.90
32769;DHT22;23049;54.304;8.826;2023-04-24T15:08:30;10.00;99.90
32769;DHT22;23049;54.304;8.826;2023-04-24T15:10:55;10.10;99.90
32769;DHT22;23049;54.304;8.826;2023-04-24T15:13:21;10.00;99.90
32769;DHT22;23049;54.304;8.826;2023-04-24T15:15:46;10.00;99.90
32769;DHT22;23049;54.304;8.826;2023-04-24T15:18:12;10.00;99.90
32769;DHT22;23049;54.304;8.826;2023-04-24T15:20:38;9.90;99.90
32769;DHT22;23049;54.304;8.826;2023-04-24T15:23:09;9.90;99.90
32769;DHT22;23049;54.304;8.826;2023-04-24T15:25:35;10.00;99.90
32769;DHT22;23049;54.304;8.826;2023-04-24T15:28:00;9.90;99.90
32769;DHT22;23049;54.304;8.826;2023-04-24T15:30:26;9.90;99.90
32769;DHT22;23049;54.304;8.826;2023-04-24T15:32:52;9.80;99.90
32769;DHT22;23049;54.304;8.826;2023-04-24T15:35:17;9.80;99.90